Time;durP1;ratioP1;P1;durP2;ratioP2;P2;SDS_P1;SDS_P2;PMS_P1;PMS_P2;Temp;Humidity;BMP_temperature;BMP_pressure;BME280_temperature;BME280_humidity;BME280_pressure;Samples;Min_cycle;Max_cycle;Signal;HPM_P1;HPM_P2
2022/01/14 00:00:05;;;;;;;58.78;25.58;;;;;;;;;;4987333;28;89238;-69
2022/01/14 00:02:33;;;;;;;53.83;23.08;;;;;;;;;;4996767;28;89078;-69
2022/01/14 00:04:59;;;;;;;56.08;23.40;;;;;;;;;;5002415;28;91224;-69
2022/01/14 00:07:26;;;;;;;47.80;23.80;;;;;;;;;;4995585;28;90645;-69
2022/01/14 00:09:54;;;;;;;49.03;22.48;;;;;;;;;;4995772;28;89741;-69
2022/01/14 00:12:26;;;;;;;46.35;23.05;;;;;;;;;;4997580;28;90335;-68
2022/01/14 00:15:23;;;;;;;57.07;22.63;;;;;;;;;;4995012;28;89823;-69
2022/01/14 00:17:47;;;;;;;49.50;21.02;;;;;;;;;;4996475;28;91258;-69
2022/01/14 00:20:14;;;;;;;58.92;25.45;;;;;;;;;;4997046;28;90251;-69
2022/01/14 00:22:40;;;;;;;52.25;22.50;;;;;;;;;;4998530;28;89146;-69
2022/01/14 00:33:09;;;;;;;53.97;25.05;;;;;;;;;;4980486;28;92390;-69
2022/01/14 00:35:36;;;;;;;52.03;24.23;;;;;;;;;;5004917;28;89732;-69
2022/01/14 00:38:03;;;;;;;60.92;25.83;;;;;;;;;;4996010;28;90376;-69
2022/01/14 00:40:30;;;;;;;59.70;25.42;;;;;;;;;;4996378;28;89550;-69
2022/01/14 00:42:57;;;;;;;54.72;24.38;;;;;;;;;;4993987;28;90910;-69
2022/01/14 00:45:23;;;;;;;61.88;24.92;;;;;;;;;;4995932;28;90128;-69
2022/01/14 00:47:49;;;;;;;54.45;25.00;;;;;;;;;;4997384;28;89458;-69
2022/01/14 00:50:17;;;;;;;50.97;23.13;;;;;;;;;;4995668;28;89407;-69
2022/01/14 00:52:44;;;;;;;51.17;24.25;;;;;;;;;;4994769;28;89374;-69
2022/01/14 00:55:16;;;;;;;59.10;25.23;;;;;;;;;;4995088;28;90523;-69
2022/01/14 01:00:29;;;;;;;46.75;22.02;;;;;;;;;;4996697;28;119532;-69
2022/01/14 01:02:55;;;;;;;44.70;22.23;;;;;;;;;;4995565;28;89077;-69
2022/01/14 01:05:22;;;;;;;48.65;23.52;;;;;;;;;;4995410;28;91071;-69
2022/01/14 01:07:58;;;;;;;50.25;23.08;;;;;;;;;;4995963;28;89749;-69
2022/01/14 01:10:24;;;;;;;47.58;24.17;;;;;;;;;;4994985;28;89828;-69
2022/01/14 01:12:55;;;;;;;32.67;17.27;;;;;;;;;;4995367;28;90068;-69
2022/01/14 01:15:21;;;;;;;47.08;22.23;;;;;;;;;;4994269;28;90530;-69
2022/01/14 01:17:48;;;;;;;46.72;23.30;;;;;;;;;;4996633;28;91280;-68
2022/01/14 01:20:18;;;;;;;48.03;25.15;;;;;;;;;;4993444;28;89648;-69
2022/01/14 01:22:48;;;;;;;39.72;20.45;;;;;;;;;;4995823;28;89458;-69
2022/01/14 01:25:30;;;;;;;49.47;24.60;;;;;;;;;;4976734;28;92365;-69
2022/01/14 01:27:56;;;;;;;52.13;23.63;;;;;;;;;;4992853;28;91147;-69
2022/01/14 01:32:58;;;;;;;54.78;24.58;;;;;;;;;;4995433;28;91088;-69
2022/01/14 01:35:25;;;;;;;56.97;23.92;;;;;;;;;;4994481;28;90155;-68
2022/01/14 01:37:52;;;;;;;54.50;25.02;;;;;;;;;;4996386;28;89617;-69
2022/01/14 01:40:20;;;;;;;58.30;25.65;;;;;;;;;;4998732;28;91028;-69
2022/01/14 01:42:47;;;;;;;56.95;24.48;;;;;;;;;;4989507;28;89831;-69
2022/01/14 01:45:19;;;;;;;50.78;24.00;;;;;;;;;;4994613;28;89953;-69
2022/01/14 01:47:50;;;;;;;49.53;22.80;;;;;;;;;;4994457;28;89405;-70
2022/01/14 01:50:18;;;;;;;53.25;25.85;;;;;;;;;;4993673;28;90019;-69
2022/01/14 01:52:44;;;;;;;58.70;24.92;;;;;;;;;;4997085;28;91015;-69
2022/01/14 01:55:11;;;;;;;49.60;24.17;;;;;;;;;;4995495;28;90582;-69
2022/01/14 01:57:37;;;;;;;53.72;24.90;;;;;;;;;;4991268;28;91349;-69
2022/01/14 02:00:05;;;;;;;62.72;25.98;;;;;;;;;;5002868;28;90363;-68
2022/01/14 02:02:40;;;;;;;56.45;25.38;;;;;;;;;;5000300;28;89254;-69
2022/01/14 02:05:07;;;;;;;64.40;25.85;;;;;;;;;;5002873;28;90028;-68
2022/01/14 02:07:34;;;;;;;61.58;27.17;;;;;;;;;;4994675;28;91403;-69
2022/01/14 02:10:01;;;;;;;74.05;28.83;;;;;;;;;;4999895;28;90703;-69
2022/01/14 02:12:36;;;;;;;61.50;26.83;;;;;;;;;;4995067;28;90861;-69
2022/01/14 02:15:25;;;;;;;64.68;26.58;;;;;;;;;;5000301;28;90750;-69
2022/01/14 02:23:23;;;;;;;65.25;27.92;;;;;;;;;;4989666;28;90384;-69
2022/01/14 02:25:50;;;;;;;74.30;27.52;;;;;;;;;;4999760;28;89962;-69
2022/01/14 02:28:17;;;;;;;67.80;28.20;;;;;;;;;;4994592;28;92726;-69
2022/01/14 02:30:45;;;;;;;71.57;28.15;;;;;;;;;;5006643;28;90413;-69
2022/01/14 02:33:13;;;;;;;59.53;25.65;;;;;;;;;;4994362;28;90708;-69
2022/01/14 02:35:40;;;;;;;72.10;27.48;;;;;;;;;;4990974;28;90677;-69
2022/01/14 02:38:08;;;;;;;62.63;25.60;;;;;;;;;;5000769;28;90340;-69
2022/01/14 02:40:35;;;;;;;61.08;27.38;;;;;;;;;;4995537;28;89994;-69
2022/01/14 02:43:05;;;;;;;53.78;25.83;;;;;;;;;;4998031;28;90356;-69
2022/01/14 02:45:34;;;;;;;63.38;27.15;;;;;;;;;;4993202;28;89248;-69
2022/01/14 02:48:01;;;;;;;63.97;26.77;;;;;;;;;;4998022;28;90883;-69
2022/01/14 02:50:36;;;;;;;60.25;26.85;;;;;;;;;;4998834;28;89648;-69
2022/01/14 02:53:12;;;;;;;57.95;25.85;;;;;;;;;;4988584;28;90760;-69
2022/01/14 02:55:43;;;;;;;53.33;25.00;;;;;;;;;;4999353;28;90597;-69
2022/01/14 02:58:09;;;;;;;58.85;25.67;;;;;;;;;;4998010;28;89627;-69
2022/01/14 03:00:36;;;;;;;55.00;26.45;;;;;;;;;;4997453;28;90226;-69
2022/01/14 03:03:04;;;;;;;56.47;25.63;;;;;;;;;;4999816;28;89871;-69
2022/01/14 03:05:31;;;;;;;51.67;24.40;;;;;;;;;;4992658;28;89923;-69
2022/01/14 03:07:57;;;;;;;53.40;24.88;;;;;;;;;;4993741;28;90026;-69
2022/01/14 03:10:24;;;;;;;55.85;24.98;;;;;;;;;;5000273;28;90096;-69
2022/01/14 03:12:50;;;;;;;51.28;24.25;;;;;;;;;;4999655;28;91068;-69
2022/01/14 03:15:16;;;;;;;53.88;24.23;;;;;;;;;;4992417;28;91252;-69
2022/01/14 03:17:43;;;;;;;55.88;24.58;;;;;;;;;;4992051;28;89217;-70
2022/01/14 03:20:22;;;;;;;46.85;23.27;;;;;;;;;;5003036;28;90964;-69
2022/01/14 03:23:02;;;;;;;60.92;25.10;;;;;;;;;;4994139;28;90744;-69
2022/01/14 03:25:47;;;;;;;55.78;23.83;;;;;;;;;;4997960;28;90916;-70
2022/01/14 03:28:18;;;;;;;59.28;23.75;;;;;;;;;;4993603;28;89425;-70
2022/01/14 03:30:44;;;;;;;50.70;23.42;;;;;;;;;;4995547;28;90684;-69
2022/01/14 03:33:11;;;;;;;56.58;24.20;;;;;;;;;;4994306;28;89798;-70
2022/01/14 03:35:37;;;;;;;61.33;23.88;;;;;;;;;;4994842;28;91036;-69
2022/01/14 03:38:04;;;;;;;57.58;26.55;;;;;;;;;;4992042;28;89830;-69
2022/01/14 03:40:30;;;;;;;44.35;23.20;;;;;;;;;;4999660;28;91248;-69
2022/01/14 03:42:57;;;;;;;47.25;23.33;;;;;;;;;;4993862;28;90067;-69
2022/01/14 03:45:23;;;;;;;56.20;23.80;;;;;;;;;;4994652;28;89833;-69
2022/01/14 03:47:50;;;;;;;51.60;23.38;;;;;;;;;;4993485;28;91546;-70
2022/01/14 03:50:16;;;;;;;67.13;24.77;;;;;;;;;;4999977;28;89763;-69
2022/01/14 03:52:43;;;;;;;48.05;21.70;;;;;;;;;;5004448;28;89791;-69
2022/01/14 03:55:09;;;;;;;53.67;23.48;;;;;;;;;;4995992;28;89328;-70
2022/01/14 03:57:45;;;;;;;55.30;23.38;;;;;;;;;;4988837;28;89436;-69
2022/01/14 04:00:11;;;;;;;52.33;21.83;;;;;;;;;;4992173;28;91193;-69
2022/01/14 04:02:42;;;;;;;44.88;21.83;;;;;;;;;;4993461;28;89002;-69
2022/01/14 04:05:08;;;;;;;43.85;22.50;;;;;;;;;;4998420;28;89159;-70
2022/01/14 04:07:35;;;;;;;53.10;22.50;;;;;;;;;;4993603;28;90973;-69
2022/01/14 04:10:02;;;;;;;51.35;24.10;;;;;;;;;;4998216;28;90249;-69
2022/01/14 04:12:43;;;;;;;60.15;24.67;;;;;;;;;;4994172;28;90445;-69
2022/01/14 04:17:59;;;;;;;49.17;21.40;;;;;;;;;;4993381;28;89111;-69
2022/01/14 04:20:26;;;;;;;46.63;23.23;;;;;;;;;;4998550;28;91015;-69
2022/01/14 04:22:52;;;;;;;50.45;23.55;;;;;;;;;;4993025;28;90022;-69
2022/01/14 04:25:19;;;;;;;45.10;22.40;;;;;;;;;;4996291;28;89069;-69
2022/01/14 04:27:45;;;;;;;49.63;23.50;;;;;;;;;;4996652;28;91043;-69
2022/01/14 04:30:12;;;;;;;48.88;23.65;;;;;;;;;;4989906;28;91019;-69
2022/01/14 04:32:38;;;;;;;56.38;22.77;;;;;;;;;;4993345;28;89152;-69
2022/01/14 04:35:05;;;;;;;53.78;24.17;;;;;;;;;;4993999;28;90565;-69
2022/01/14 04:37:31;;;;;;;53.78;23.55;;;;;;;;;;4996077;28;91191;-69
2022/01/14 04:39:57;;;;;;;46.63;22.00;;;;;;;;;;4997900;28;90760;-69
2022/01/14 04:42:25;;;;;;;60.63;23.02;;;;;;;;;;4992344;28;89959;-69
2022/01/14 04:44:54;;;;;;;58.47;26.08;;;;;;;;;;5001641;28;89158;-69
2022/01/14 04:47:32;;;;;;;47.75;23.40;;;;;;;;;;4995540;28;91429;-69
2022/01/14 04:49:59;;;;;;;68.97;25.05;;;;;;;;;;4995973;28;90452;-69
2022/01/14 04:52:26;;;;;;;66.43;24.50;;;;;;;;;;4996364;28;89792;-69
2022/01/14 04:54:53;;;;;;;73.07;25.80;;;;;;;;;;4997487;28;90350;-69
2022/01/14 04:57:21;;;;;;;65.53;25.27;;;;;;;;;;4996030;28;90143;-69
2022/01/14 04:59:48;;;;;;;54.70;25.70;;;;;;;;;;4996697;28;89221;-69
2022/01/14 05:02:15;;;;;;;50.88;23.98;;;;;;;;;;4996176;28;90570;-69
2022/01/14 05:04:43;;;;;;;54.70;24.88;;;;;;;;;;4995767;28;90626;-69
2022/01/14 05:07:22;;;;;;;55.78;24.98;;;;;;;;;;4996657;28;90898;-70
2022/01/14 05:09:57;;;;;;;68.35;25.70;;;;;;;;;;4997274;28;90363;-69
2022/01/14 05:12:24;;;;;;;65.47;24.98;;;;;;;;;;4995787;28;89688;-69
2022/01/14 05:14:50;;;;;;;49.05;22.30;;;;;;;;;;4998577;28;89070;-69
2022/01/14 05:17:16;;;;;;;61.00;25.00;;;;;;;;;;4994170;28;90267;-69
2022/01/14 05:19:43;;;;;;;58.88;24.02;;;;;;;;;;4998959;28;89076;-69
2022/01/14 05:22:10;;;;;;;78.70;27.27;;;;;;;;;;4998425;28;90378;-69
2022/01/14 05:24:36;;;;;;;50.50;23.67;;;;;;;;;;4994465;28;89730;-69
2022/01/14 05:27:02;;;;;;;59.30;23.45;;;;;;;;;;4994470;28;90699;-69
2022/01/14 05:29:29;;;;;;;56.05;23.83;;;;;;;;;;5002381;28;90838;-69
2022/01/14 05:32:02;;;;;;;54.22;24.33;;;;;;;;;;4993048;28;89052;-69
2022/01/14 05:34:32;;;;;;;50.25;22.95;;;;;;;;;;4997113;28;91074;-69
2022/01/14 05:36:59;;;;;;;56.75;25.42;;;;;;;;;;4995706;28;90992;-69
2022/01/14 05:39:25;;;;;;;53.55;25.55;;;;;;;;;;4998645;28;90040;-69
2022/01/14 05:41:53;;;;;;;54.55;24.70;;;;;;;;;;4998453;28;90252;-69
2022/01/14 05:44:19;;;;;;;52.22;24.02;;;;;;;;;;5001539;28;89981;-69
2022/01/14 05:46:46;;;;;;;74.70;25.92;;;;;;;;;;4994744;28;92111;-69
2022/01/14 05:49:12;;;;;;;48.85;24.05;;;;;;;;;;4993994;28;90245;-69
2022/01/14 05:51:39;;;;;;;53.40;24.10;;;;;;;;;;4995678;28;90447;-69
2022/01/14 05:54:05;;;;;;;51.95;24.17;;;;;;;;;;5000853;28;90140;-69
2022/01/14 05:56:31;;;;;;;51.20;24.65;;;;;;;;;;4995205;28;90460;-69
2022/01/14 05:58:58;;;;;;;54.15;25.23;;;;;;;;;;4993419;28;91654;-69
2022/01/14 06:01:24;;;;;;;54.85;24.90;;;;;;;;;;4995356;28;90956;-69
2022/01/14 06:03:51;;;;;;;62.50;25.05;;;;;;;;;;5004372;28;89967;-69
2022/01/14 06:06:17;;;;;;;53.10;23.17;;;;;;;;;;4992400;28;91271;-69
2022/01/14 06:08:48;;;;;;;51.15;24.08;;;;;;;;;;5002078;28;91355;-68
2022/01/14 06:11:14;;;;;;;55.92;24.17;;;;;;;;;;4996953;28;89407;-69
2022/01/14 06:13:41;;;;;;;53.05;24.10;;;;;;;;;;4994756;28;90832;-69
2022/01/14 06:16:07;;;;;;;58.65;25.30;;;;;;;;;;4996839;28;90346;-69
2022/01/14 06:18:34;;;;;;;50.20;24.58;;;;;;;;;;4992636;28;90957;-69
2022/01/14 06:21:00;;;;;;;53.08;25.65;;;;;;;;;;4991290;28;90930;-69
2022/01/14 06:23:26;;;;;;;52.15;25.30;;;;;;;;;;4992107;28;90445;-69
2022/01/14 06:26:13;;;;;;;53.28;24.83;;;;;;;;;;4992589;28;88962;-69
2022/01/14 06:28:42;;;;;;;49.63;24.08;;;;;;;;;;4997037;28;89896;-69
2022/01/14 06:31:08;;;;;;;50.67;24.30;;;;;;;;;;4995311;28;89154;-69
2022/01/14 06:33:35;;;;;;;56.28;26.45;;;;;;;;;;4991924;28;89854;-69
2022/01/14 06:36:01;;;;;;;55.20;24.10;;;;;;;;;;4994368;28;89692;-69
2022/01/14 06:38:28;;;;;;;56.10;25.15;;;;;;;;;;4999846;28;90380;-69
2022/01/14 06:40:54;;;;;;;55.67;25.00;;;;;;;;;;4994726;28;91534;-69
2022/01/14 06:43:21;;;;;;;49.38;23.52;;;;;;;;;;4992254;28;90903;-69
2022/01/14 06:45:47;;;;;;;46.15;23.77;;;;;;;;;;4992723;28;89820;-69
2022/01/14 06:48:14;;;;;;;46.70;23.00;;;;;;;;;;4996356;28;90880;-69
2022/01/14 06:50:40;;;;;;;48.60;24.10;;;;;;;;;;5000034;28;89550;-69
2022/01/14 06:53:06;;;;;;;45.70;23.05;;;;;;;;;;4992472;28;90123;-69
2022/01/14 06:55:33;;;;;;;45.90;23.85;;;;;;;;;;4992788;28;90520;-68
2022/01/14 06:57:59;;;;;;;48.80;25.33;;;;;;;;;;4994790;28;89835;-69
2022/01/14 07:00:27;;;;;;;48.92;23.95;;;;;;;;;;4994934;28;89169;-69
2022/01/14 07:02:54;;;;;;;47.67;23.48;;;;;;;;;;4986770;28;91380;-69
2022/01/14 07:05:21;;;;;;;47.90;20.55;;;;;;;;;;4990444;28;89412;-69
2022/01/14 07:07:47;;;;;;;39.90;23.50;;;;;;;;;;4994352;28;89789;-69
2022/01/14 07:10:13;;;;;;;44.72;23.50;;;;;;;;;;4995787;28;89625;-68
2022/01/14 07:12:41;;;;;;;38.95;22.20;;;;;;;;;;4994634;28;91268;-69
2022/01/14 07:15:10;;;;;;;41.42;23.25;;;;;;;;;;4993902;28;89267;-69
2022/01/14 07:17:37;;;;;;;41.63;23.45;;;;;;;;;;4993204;28;89002;-69
2022/01/14 07:20:10;;;;;;;41.83;22.08;;;;;;;;;;4994149;28;90022;-70
2022/01/14 07:22:37;;;;;;;36.40;22.90;;;;;;;;;;4993305;28;91025;-69
2022/01/14 07:25:03;;;;;;;34.42;21.23;;;;;;;;;;4994164;28;89145;-70
2022/01/14 07:27:30;;;;;;;33.72;20.58;;;;;;;;;;4994075;28;91492;-70
2022/01/14 07:29:57;;;;;;;32.50;21.17;;;;;;;;;;4994599;28;90639;-69
2022/01/14 07:32:23;;;;;;;35.92;20.30;;;;;;;;;;4997513;28;90939;-69
2022/01/14 07:34:50;;;;;;;36.33;21.77;;;;;;;;;;4992507;28;89718;-69
2022/01/14 07:37:17;;;;;;;36.22;21.60;;;;;;;;;;4991426;28;89910;-70
2022/01/14 07:39:44;;;;;;;39.72;20.58;;;;;;;;;;4992960;28;91298;-69
2022/01/14 07:42:11;;;;;;;34.45;21.67;;;;;;;;;;4992331;28;89437;-69
2022/01/14 07:44:38;;;;;;;35.22;21.27;;;;;;;;;;4993667;28;89743;-69
2022/01/14 07:47:05;;;;;;;41.40;21.00;;;;;;;;;;4990730;28;91171;-69
2022/01/14 07:49:31;;;;;;;38.75;20.23;;;;;;;;;;4987871;28;90968;-69
2022/01/14 07:51:59;;;;;;;34.50;20.13;;;;;;;;;;4992481;28;90291;-69
2022/01/14 07:54:25;;;;;;;34.40;20.50;;;;;;;;;;4991582;28;91003;-70
2022/01/14 07:56:53;;;;;;;31.40;19.65;;;;;;;;;;4991549;28;90760;-69
2022/01/14 07:59:21;;;;;;;31.38;19.65;;;;;;;;;;4992501;28;91813;-70
2022/01/14 08:01:48;;;;;;;28.05;19.27;;;;;;;;;;4993062;28;90595;-70
2022/01/14 08:04:17;;;;;;;32.30;21.05;;;;;;;;;;4993275;28;89717;-70
2022/01/14 08:06:49;;;;;;;32.95;20.10;;;;;;;;;;4993374;28;91022;-69
2022/01/14 08:09:16;;;;;;;27.63;19.20;;;;;;;;;;4993195;28;90737;-70
2022/01/14 08:11:43;;;;;;;35.75;20.98;;;;;;;;;;4992957;28;89165;-70
2022/01/14 08:14:10;;;;;;;39.53;20.50;;;;;;;;;;4996023;28;90814;-69
2022/01/14 08:16:37;;;;;;;35.42;19.40;;;;;;;;;;4993130;28;89647;-70
2022/01/14 08:19:03;;;;;;;28.33;19.90;;;;;;;;;;4993134;28;90998;-69
2022/01/14 08:21:30;;;;;;;28.23;19.27;;;;;;;;;;4993207;28;90173;-69
2022/01/14 08:23:57;;;;;;;32.95;19.67;;;;;;;;;;4996383;28;89129;-69
2022/01/14 08:26:23;;;;;;;29.67;19.45;;;;;;;;;;5004630;28;91087;-69
2022/01/14 08:28:50;;;;;;;30.27;19.73;;;;;;;;;;5004398;28;90701;-69
2022/01/14 08:31:17;;;;;;;32.30;18.17;;;;;;;;;;5004820;28;89030;-70
2022/01/14 08:33:44;;;;;;;30.90;19.50;;;;;;;;;;4988872;28;90345;-69
2022/01/14 08:36:11;;;;;;;32.95;18.88;;;;;;;;;;5006676;28;90066;-69
2022/01/14 08:38:37;;;;;;;31.55;17.92;;;;;;;;;;4996953;28;90433;-70
2022/01/14 08:41:04;;;;;;;27.63;18.10;;;;;;;;;;4996118;28;89643;-69
2022/01/14 08:43:30;;;;;;;30.40;18.00;;;;;;;;;;4999122;28;90822;-69
2022/01/14 08:46:02;;;;;;;29.50;18.42;;;;;;;;;;4996337;28;91786;-70
2022/01/14 08:48:30;;;;;;;24.75;17.75;;;;;;;;;;4995421;28;91910;-69
2022/01/14 08:50:57;;;;;;;29.60;17.20;;;;;;;;;;4996022;28;89867;-69
2022/01/14 08:53:26;;;;;;;25.20;18.20;;;;;;;;;;4995778;28;90006;-70
2022/01/14 08:55:53;;;;;;;22.38;17.05;;;;;;;;;;4995981;28;89184;-70
2022/01/14 08:58:19;;;;;;;25.58;17.48;;;;;;;;;;4999560;28;89857;-69
2022/01/14 09:00:45;;;;;;;28.83;18.38;;;;;;;;;;4995983;28;89756;-69
2022/01/14 09:03:12;;;;;;;25.83;18.70;;;;;;;;;;4996075;28;89093;-71
2022/01/14 09:05:38;;;;;;;31.20;19.35;;;;;;;;;;4995462;28;89913;-69
2022/01/14 09:08:05;;;;;;;31.77;17.63;;;;;;;;;;4996180;28;92987;-69
2022/01/14 09:10:31;;;;;;;27.38;18.17;;;;;;;;;;4987129;28;90160;-69
2022/01/14 09:12:57;;;;;;;26.05;17.77;;;;;;;;;;5004489;28;91369;-69
2022/01/14 09:15:24;;;;;;;33.33;18.70;;;;;;;;;;4996752;28;89780;-69
2022/01/14 09:17:50;;;;;;;29.25;18.00;;;;;;;;;;4998524;28;91591;-69
2022/01/14 09:20:17;;;;;;;31.13;18.60;;;;;;;;;;5002616;28;89838;-70
2022/01/14 09:22:48;;;;;;;27.63;17.77;;;;;;;;;;4996079;28;90161;-69
2022/01/14 09:25:16;;;;;;;30.27;19.00;;;;;;;;;;5003961;28;90788;-70
2022/01/14 09:27:42;;;;;;;26.73;17.85;;;;;;;;;;4997003;28;89600;-71
2022/01/14 09:30:09;;;;;;;27.83;18.83;;;;;;;;;;4995525;28;89977;-73
2022/01/14 09:32:35;;;;;;;30.45;18.05;;;;;;;;;;4995700;28;90187;-71
2022/01/14 09:35:23;;;;;;;28.02;18.83;;;;;;;;;;4993675;28;89406;-70
2022/01/14 09:37:50;;;;;;;34.35;18.17;;;;;;;;;;4994791;28;89518;-69
2022/01/14 09:40:21;;;;;;;26.30;16.90;;;;;;;;;;4998644;28;89864;-69
2022/01/14 09:42:48;;;;;;;22.60;17.02;;;;;;;;;;4995890;28;90935;-70
2022/01/14 09:45:15;;;;;;;27.25;17.67;;;;;;;;;;4995155;28;90903;-69
2022/01/14 09:47:48;;;;;;;25.23;17.80;;;;;;;;;;4995085;28;89894;-70
2022/01/14 09:50:14;;;;;;;29.25;18.33;;;;;;;;;;4995757;28;90557;-69
2022/01/14 09:52:41;;;;;;;23.85;17.10;;;;;;;;;;4993691;28;89087;-70
2022/01/14 09:55:08;;;;;;;27.33;16.23;;;;;;;;;;4995495;28;90766;-69
2022/01/14 09:57:34;;;;;;;26.55;17.80;;;;;;;;;;4994857;28;89379;-69
2022/01/14 10:00:02;;;;;;;25.23;17.63;;;;;;;;;;4993948;28;90104;-68
2022/01/14 10:02:32;;;;;;;25.73;17.83;;;;;;;;;;4998245;28;90412;-68
2022/01/14 10:04:59;;;;;;;32.90;17.88;;;;;;;;;;4994951;28;90911;-68
2022/01/14 10:07:25;;;;;;;26.98;17.92;;;;;;;;;;4995097;28;90454;-68
2022/01/14 10:09:59;;;;;;;24.27;16.77;;;;;;;;;;4995333;28;90034;-68
2022/01/14 10:12:30;;;;;;;31.10;17.48;;;;;;;;;;4994556;28;90857;-68
2022/01/14 10:14:58;;;;;;;25.40;17.17;;;;;;;;;;4995038;28;90566;-68
2022/01/14 10:17:25;;;;;;;31.98;17.88;;;;;;;;;;4994884;28;89529;-68
2022/01/14 10:19:52;;;;;;;23.83;16.70;;;;;;;;;;4994445;28;90985;-68
2022/01/14 10:22:26;;;;;;;29.33;18.17;;;;;;;;;;4994835;28;90344;-68
2022/01/14 10:24:53;;;;;;;34.03;17.90;;;;;;;;;;4997633;28;92000;-68
2022/01/14 10:27:29;;;;;;;35.33;17.63;;;;;;;;;;4994509;28;90736;-68
2022/01/14 10:30:05;;;;;;;24.58;16.75;;;;;;;;;;4994959;28;89924;-68
2022/01/14 10:32:33;;;;;;;24.48;16.92;;;;;;;;;;4994534;28;90108;-68
2022/01/14 10:35:07;;;;;;;33.70;17.65;;;;;;;;;;4993149;28;90484;-68
2022/01/14 10:37:34;;;;;;;28.60;18.00;;;;;;;;;;4994931;28;89972;-68
2022/01/14 10:40:02;;;;;;;26.92;18.25;;;;;;;;;;4994629;28;90381;-68
2022/01/14 10:42:31;;;;;;;28.23;17.73;;;;;;;;;;4994211;28;90239;-68
2022/01/14 10:45:19;;;;;;;30.83;18.08;;;;;;;;;;4993687;28;89777;-68
2022/01/14 10:47:54;;;;;;;33.08;18.27;;;;;;;;;;4996684;28;90338;-67
2022/01/14 10:50:40;;;;;;;27.95;16.75;;;;;;;;;;4994089;28;90490;-68
2022/01/14 10:53:08;;;;;;;28.70;17.13;;;;;;;;;;4994681;28;90881;-68
2022/01/14 10:55:36;;;;;;;25.15;17.67;;;;;;;;;;4993217;28;90785;-68
2022/01/14 10:58:03;;;;;;;29.75;18.80;;;;;;;;;;4994266;28;89768;-68
2022/01/14 11:00:48;;;;;;;26.52;17.42;;;;;;;;;;4994963;28;91004;-69
2022/01/14 11:03:16;;;;;;;25.38;17.52;;;;;;;;;;4994038;28;90097;-69
2022/01/14 11:05:42;;;;;;;29.13;18.08;;;;;;;;;;5000068;28;89799;-69
2022/01/14 11:08:09;;;;;;;27.25;18.73;;;;;;;;;;4994845;28;89846;-69
2022/01/14 11:10:36;;;;;;;24.05;16.98;;;;;;;;;;4994832;28;89263;-68
2022/01/14 11:13:05;;;;;;;28.08;17.55;;;;;;;;;;4994778;28;90060;-69
2022/01/14 11:15:32;;;;;;;30.92;19.63;;;;;;;;;;4995732;28;89592;-69
2022/01/14 11:18:02;;;;;;;29.27;19.13;;;;;;;;;;5004807;28;89543;-69
2022/01/14 11:20:34;;;;;;;26.77;18.48;;;;;;;;;;5002218;28;91020;-69
2022/01/14 11:23:16;;;;;;;25.60;18.27;;;;;;;;;;5001659;28;90378;-69
2022/01/14 11:26:02;;;;;;;28.88;19.25;;;;;;;;;;4994472;28;89705;-69
2022/01/14 11:28:30;;;;;;;26.75;18.27;;;;;;;;;;5001610;28;90694;-69
2022/01/14 11:30:57;;;;;;;29.33;18.05;;;;;;;;;;5001521;28;89583;-69
2022/01/14 11:33:40;;;;;;;30.08;17.80;;;;;;;;;;5004419;28;90201;-69
2022/01/14 11:36:07;;;;;;;30.63;17.75;;;;;;;;;;5001771;28;89629;-69
2022/01/14 11:38:35;;;;;;;30.55;17.15;;;;;;;;;;4997174;28;89363;-69
2022/01/14 11:41:01;;;;;;;30.60;18.08;;;;;;;;;;4992390;28;90604;-69
2022/01/14 11:43:38;;;;;;;27.92;17.45;;;;;;;;;;4991646;28;90614;-69
2022/01/14 11:46:05;;;;;;;25.25;18.48;;;;;;;;;;4994246;28;90284;-69
2022/01/14 11:48:34;;;;;;;33.80;18.77;;;;;;;;;;4993297;28;89226;-69
2022/01/14 11:51:01;;;;;;;36.85;19.58;;;;;;;;;;4997648;28;91673;-68
2022/01/14 11:53:30;;;;;;;32.85;18.55;;;;;;;;;;4996421;28;89927;-69
2022/01/14 11:55:57;;;;;;;23.15;17.27;;;;;;;;;;4995694;28;89274;-68
2022/01/14 11:58:23;;;;;;;31.52;18.13;;;;;;;;;;4996865;28;89134;-68
2022/01/14 12:00:50;;;;;;;24.85;17.45;;;;;;;;;;4997992;28;91292;-69
2022/01/14 12:03:28;;;;;;;24.65;17.58;;;;;;;;;;4995029;28;90406;-68
2022/01/14 12:05:57;;;;;;;38.13;17.73;;;;;;;;;;4998266;28;90861;-69
2022/01/14 12:08:25;;;;;;;28.73;17.13;;;;;;;;;;5004937;28;90302;-69
2022/01/14 12:11:01;;;;;;;25.67;17.77;;;;;;;;;;4997904;28;90409;-69
2022/01/14 12:13:38;;;;;;;35.47;19.08;;;;;;;;;;4997053;28;89821;-69
2022/01/14 12:16:06;;;;;;;31.05;17.63;;;;;;;;;;5000106;28;90100;-69
2022/01/14 12:18:42;;;;;;;36.67;17.60;;;;;;;;;;4996621;28;89096;-69
2022/01/14 12:21:09;;;;;;;28.23;16.20;;;;;;;;;;4999311;28;90157;-68
2022/01/14 12:23:35;;;;;;;36.60;17.58;;;;;;;;;;4998544;28;89613;-68
2022/01/14 12:26:15;;;;;;;29.38;17.05;;;;;;;;;;5002747;28;89569;-68
2022/01/14 12:28:42;;;;;;;28.15;17.02;;;;;;;;;;4997330;28;91113;-69
2022/01/14 12:31:09;;;;;;;24.13;16.33;;;;;;;;;;4997257;28;91030;-70
2022/01/14 12:33:39;;;;;;;25.38;16.13;;;;;;;;;;4997512;28;89802;-69
2022/01/14 12:36:12;;;;;;;30.05;16.30;;;;;;;;;;5003073;28;90738;-69
2022/01/14 12:38:39;;;;;;;32.47;16.05;;;;;;;;;;4999214;28;89706;-68
2022/01/14 12:41:13;;;;;;;27.20;14.68;;;;;;;;;;5004105;28;91424;-68
2022/01/14 12:43:53;;;;;;;28.70;13.90;;;;;;;;;;4997017;28;90756;-69
2022/01/14 12:46:53;;;;;;;26.63;16.48;;;;;;;;;;5004937;28;94714;-69
2022/01/14 12:49:24;;;;;;;24.17;15.93;;;;;;;;;;4989965;28;93313;-69
2022/01/14 12:52:01;;;;;;;26.58;17.02;;;;;;;;;;4994297;28;93311;-69
2022/01/14 12:54:34;;;;;;;35.30;15.48;;;;;;;;;;5005386;28;94382;-68
2022/01/14 12:57:01;;;;;;;33.88;14.60;;;;;;;;;;4987019;28;94951;-68
2022/01/14 12:59:38;;;;;;;26.27;13.45;;;;;;;;;;4996666;28;95628;-69
2022/01/14 13:02:05;;;;;;;33.08;13.90;;;;;;;;;;4989244;28;94573;-69
2022/01/14 13:04:31;;;;;;;25.67;13.32;;;;;;;;;;4989346;28;94785;-68
2022/01/14 13:07:01;;;;;;;27.30;14.77;;;;;;;;;;4993581;28;94688;-69
2022/01/14 13:09:30;;;;;;;26.65;14.68;;;;;;;;;;4993273;28;92846;-69
2022/01/14 13:12:01;;;;;;;28.17;16.02;;;;;;;;;;5003270;28;94415;-69
2022/01/14 13:14:34;;;;;;;35.72;15.70;;;;;;;;;;5004761;28;92835;-68
2022/01/14 13:17:07;;;;;;;20.40;15.25;;;;;;;;;;4993286;28;92521;-68
2022/01/14 13:19:34;;;;;;;32.40;15.38;;;;;;;;;;4993041;28;93727;-69
2022/01/14 13:22:03;;;;;;;32.35;14.95;;;;;;;;;;4991435;28;96425;-68
2022/01/14 13:24:30;;;;;;;30.05;14.48;;;;;;;;;;4995658;28;92506;-69
2022/01/14 13:27:13;;;;;;;23.98;14.57;;;;;;;;;;5002486;28;94387;-68
2022/01/14 13:29:42;;;;;;;31.45;15.02;;;;;;;;;;4996383;28;92941;-69
2022/01/14 13:32:09;;;;;;;31.15;15.95;;;;;;;;;;4993747;28;94005;-69
2022/01/14 13:34:36;;;;;;;26.65;15.40;;;;;;;;;;4993215;28;94024;-69
2022/01/14 13:37:03;;;;;;;27.60;14.88;;;;;;;;;;4992125;28;92517;-69
2022/01/14 13:39:30;;;;;;;33.05;15.15;;;;;;;;;;4993403;28;93735;-69
2022/01/14 13:41:56;;;;;;;34.25;14.73;;;;;;;;;;4993571;28;93584;-69
2022/01/14 13:44:27;;;;;;;27.63;14.43;;;;;;;;;;5003595;28;92614;-69
2022/01/14 13:47:00;;;;;;;26.50;13.73;;;;;;;;;;4996927;28;96200;-68
2022/01/14 13:49:27;;;;;;;28.02;14.23;;;;;;;;;;4990663;28;92827;-68
2022/01/14 13:52:00;;;;;;;24.95;14.55;;;;;;;;;;4991770;28;94239;-68
2022/01/14 13:54:27;;;;;;;28.77;14.35;;;;;;;;;;4999087;28;94154;-68
2022/01/14 13:56:53;;;;;;;23.75;14.13;;;;;;;;;;4993457;28;92491;-68
2022/01/14 13:59:20;;;;;;;27.92;14.27;;;;;;;;;;4984744;28;93319;-68
2022/01/14 14:01:52;;;;;;;26.27;15.23;;;;;;;;;;4992943;28;93616;-68
2022/01/14 14:04:26;;;;;;;26.52;14.98;;;;;;;;;;4992354;28;92212;-69
2022/01/14 14:07:14;;;;;;;28.30;15.00;;;;;;;;;;5003369;28;92535;-69
2022/01/14 14:09:50;;;;;;;22.52;12.60;;;;;;;;;;4987722;28;92524;-69
2022/01/14 14:17:41;;;;;;;26.70;12.45;;;;;;;;;;4988047;28;92476;-69
2022/01/14 14:20:07;;;;;;;29.00;12.18;;;;;;;;;;4991976;28;93141;-69
2022/01/14 14:22:41;;;;;;;23.90;12.70;;;;;;;;;;4992456;28;94017;-69
2022/01/14 14:25:15;;;;;;;25.25;12.90;;;;;;;;;;4993257;28;92470;-69
2022/01/14 14:27:54;;;;;;;21.20;12.82;;;;;;;;;;4992797;28;93333;-69
2022/01/14 14:30:21;;;;;;;17.95;12.13;;;;;;;;;;4995764;28;92898;-69
2022/01/14 14:32:48;;;;;;;28.85;11.25;;;;;;;;;;4991847;28;92691;-69
2022/01/14 14:35:18;;;;;;;23.73;12.32;;;;;;;;;;4992548;28;94623;-69
2022/01/14 14:37:48;;;;;;;30.38;11.30;;;;;;;;;;4991158;28;94850;-69
2022/01/14 14:40:18;;;;;;;24.33;11.75;;;;;;;;;;4991687;28;96547;-71
2022/01/14 14:42:46;;;;;;;19.53;10.37;;;;;;;;;;4999855;28;93256;-69
2022/01/14 14:45:13;;;;;;;22.00;10.98;;;;;;;;;;4999316;28;92476;-69
2022/01/14 14:47:40;;;;;;;20.65;9.65;;;;;;;;;;4992221;28;94820;-69
2022/01/14 14:50:08;;;;;;;17.73;8.35;;;;;;;;;;5000054;28;93523;-70
2022/01/14 14:52:35;;;;;;;19.52;8.05;;;;;;;;;;4996367;28;93163;-69